Time;durP1;ratioP1;P1;durP2;ratioP2;P2;SDS_P1;SDS_P2;PMS_P1;PMS_P2;Temp;Humidity;BMP_temperature;BMP_pressure;BME280_temperature;BME280_humidity;BME280_pressure;Samples;Min_cycle;Max_cycle;Signal;HPM_P1;HPM_P2
2022/04/01 00:00:19;;;;;;;12.83;11.27;;;;;3.30;99609.00;;;;10169495;29;20205;-78
2022/04/01 00:05:21;;;;;;;12.47;11.17;;;;;3.30;99608.00;;;;10200756;29;20206;-78
2022/04/01 00:10:23;;;;;;;16.53;13.90;;;;;3.30;99609.00;;;;10200911;29;20198;-79
2022/04/01 00:15:25;;;;;;;15.07;13.47;;;;;3.20;99611.00;;;;10185558;29;20199;-79
2022/04/01 00:20:27;;;;;;;16.33;13.43;;;;;3.30;99623.00;;;;10161688;29;20223;-78
2022/04/01 00:25:30;;;;;;;16.87;14.30;;;;;3.30;99632.00;;;;10176441;29;20223;-77
2022/04/01 00:30:34;;;;;;;16.87;15.07;;;;;3.20;99623.00;;;;10198238;29;20202;-78
2022/04/01 00:35:36;;;;;;;16.03;14.33;;;;;3.20;99619.00;;;;10170473;29;20631;-78
2022/04/01 00:40:39;;;;;;;14.87;13.27;;;;;3.10;99630.00;;;;10185058;29;20209;-77
2022/04/01 00:45:41;;;;;;;13.63;12.17;;;;;3.00;99642.00;;;;10215283;29;20214;-79
2022/04/01 00:50:43;;;;;;;12.57;11.30;;;;;3.00;99646.00;;;;10200539;29;20195;-78
2022/04/01 00:55:46;;;;;;;13.37;12.07;;;;;2.90;99649.00;;;;10199102;29;20214;-77
2022/04/01 01:00:49;;;;;;;12.27;11.07;;;;;2.80;99655.00;;;;10173953;29;20254;-78
2022/04/01 01:05:51;;;;;;;13.07;11.77;;;;;2.70;99657.00;;;;10147985;29;20214;-78
2022/04/01 01:10:53;;;;;;;16.30;13.20;;;;;2.70;99665.00;;;;10149206;29;20684;-77
2022/04/01 01:15:56;;;;;;;14.73;13.23;;;;;2.60;99668.00;;;;10164047;29;20195;-78
2022/04/01 01:20:59;;;;;;;14.43;12.90;;;;;2.60;99681.00;;;;10152077;29;20229;-77
2022/04/01 01:26:01;;;;;;;14.37;12.60;;;;;2.50;99674.00;;;;10186893;29;20210;-78
2022/04/01 01:31:05;;;;;;;13.90;12.50;;;;;2.50;99679.00;;;;10145545;29;20293;-76
2022/04/01 01:36:07;;;;;;;13.47;12.07;;;;;2.40;99677.00;;;;10162756;29;20223;-77
2022/04/01 01:41:09;;;;;;;14.03;12.47;;;;;2.30;99693.00;;;;10171804;29;20202;-77
2022/04/01 01:46:11;;;;;;;11.93;10.73;;;;;2.30;99697.00;;;;10185649;29;20324;-77
2022/04/01 01:56:34;;;;;;;11.00;9.90;;;;;2.20;99703.00;;;;10186178;29;20198;-76
2022/04/01 02:01:39;;;;;;;9.47;8.53;;;;;2.20;99728.00;;;;10186330;29;20194;-76
2022/04/01 02:06:41;;;;;;;9.83;8.83;;;;;2.10;99718.00;;;;10185959;29;20665;-78
2022/04/01 02:11:43;;;;;;;8.77;7.87;;;;;2.00;99720.00;;;;10186485;29;20561;-77
2022/04/01 02:16:45;;;;;;;8.20;7.40;;;;;2.00;99731.00;;;;10185748;29;20199;-78
2022/04/01 02:21:57;;;;;;;7.83;7.13;;;;;2.00;99732.00;;;;10160389;29;20210;-77
2022/04/01 02:27:00;;;;;;;7.10;6.47;;;;;1.90;99740.00;;;;10131189;29;20215;-78
2022/04/01 02:32:03;;;;;;;5.50;4.97;;;;;1.80;99746.00;;;;10144899;29;20211;-77
2022/04/01 02:37:25;;;;;;;6.93;6.17;;;;;1.70;99752.00;;;;10176695;29;20226;-77
2022/04/01 02:42:30;;;;;;;6.13;5.53;;;;;1.70;99757.00;;;;10183180;29;20186;-77
2022/04/01 02:47:32;;;;;;;6.43;5.83;;;;;1.70;99761.00;;;;10182310;29;20216;-77
2022/04/01 02:52:34;;;;;;;6.93;5.83;;;;;1.60;99765.00;;;;10167925;29;20250;-77
2022/04/01 02:57:37;;;;;;;7.20;5.60;;;;;1.50;99767.00;;;;10155080;29;20195;-77
2022/04/01 03:02:40;;;;;;;5.80;5.20;;;;;1.50;99790.00;;;;10145745;29;20201;-78
2022/04/01 03:07:44;;;;;;;6.27;5.50;;;;;1.50;99788.00;;;;10165046;29;20266;-76
2022/04/01 03:12:47;;;;;;;7.27;6.03;;;;;1.40;99785.00;;;;10153183;29;20198;-78
2022/04/01 03:17:50;;;;;;;5.73;5.07;;;;;1.40;99793.00;;;;10184356;29;20202;-78
2022/04/01 03:23:11;;;;;;;6.17;5.57;;;;;1.30;99800.00;;;;10187044;29;20194;-78
2022/04/01 03:28:15;;;;;;;5.97;5.37;;;;;1.20;99805.00;;;;10169034;29;20289;-78
2022/04/01 03:33:20;;;;;;;6.60;4.77;;;;;1.20;99803.00;;;;10137096;29;20683;-78
2022/04/01 03:38:22;;;;;;;5.90;5.37;;;;;1.10;99802.00;;;;10146008;29;20234;-78
2022/04/01 03:43:25;;;;;;;6.33;5.73;;;;;1.10;99809.00;;;;10160749;29;20202;-77
2022/04/01 03:48:45;;;;;;;7.87;5.50;;;;;1.00;99809.00;;;;10160172;29;20621;-79
2022/04/01 03:53:58;;;;;;;6.10;5.50;;;;;1.00;99822.00;;;;10190462;29;20198;-78
2022/04/01 03:59:24;;;;;;;6.03;5.43;;;;;1.00;99824.00;;;;10177822;29;20202;-78
2022/04/01 04:04:56;;;;;;;5.17;4.67;;;;;0.90;99836.00;;;;10177702;29;20214;-78
2022/04/01 04:09:59;;;;;;;5.93;5.17;;;;;0.90;99842.00;;;;10157781;29;20222;-78
2022/04/01 04:15:05;;;;;;;6.57;5.70;;;;;0.80;99849.00;;;;10188280;29;20202;-78
2022/04/01 04:20:18;;;;;;;6.57;5.97;;;;;0.80;99845.00;;;;10157762;29;20198;-79
2022/04/01 04:25:32;;;;;;;6.83;6.10;;;;;0.80;99857.00;;;;10227203;29;20244;-78
2022/04/01 04:30:38;;;;;;;7.23;6.40;;;;;0.80;99865.00;;;;10206813;29;20198;-78
2022/04/01 04:36:05;;;;;;;6.93;6.33;;;;;0.80;99869.00;;;;10174713;29;20225;-78
2022/04/01 04:41:26;;;;;;;7.30;6.60;;;;;0.80;99876.00;;;;10170154;29;20236;-79
2022/04/01 04:46:37;;;;;;;8.07;6.17;;;;;0.70;99884.00;;;;10171330;29;20245;-80
2022/04/01 04:51:40;;;;;;;6.40;5.57;;;;;0.70;99903.00;;;;10145550;29;20202;-78
2022/04/01 04:56:54;;;;;;;7.67;6.67;;;;;0.70;99911.00;;;;10157250;29;20205;-79
2022/04/01 05:02:06;;;;;;;7.83;7.03;;;;;0.70;99909.00;;;;10170818;29;20657;-79
2022/04/01 05:07:34;;;;;;;9.33;7.27;;;;;0.70;99925.00;;;;10155122;29;20210;-79
2022/04/01 05:13:09;;;;;;;8.43;7.23;;;;;0.60;99930.00;;;;10170456;29;20213;-78
2022/04/01 05:18:46;;;;;;;9.57;8.20;;;;;0.60;99924.00;;;;10181750;29;20201;-79
2022/04/01 05:23:59;;;;;;;11.93;8.03;;;;;0.60;99939.00;;;;10152133;29;20281;-79
2022/04/01 05:29:26;;;;;;;11.03;9.67;;;;;0.60;99949.00;;;;10166774;29;20221;-79
2022/04/01 05:34:43;;;;;;;10.00;8.97;;;;;0.60;99961.00;;;;10143139;29;20198;-79
2022/04/01 05:39:47;;;;;;;11.90;8.63;;;;;0.60;99965.00;;;;10166795;29;20883;-79
2022/04/01 05:44:51;;;;;;;8.90;7.83;;;;;0.60;99965.00;;;;10167319;29;20194;-80
2022/04/01 05:49:57;;;;;;;11.80;9.57;;;;;0.50;99980.00;;;;10169778;29;20202;-80
2022/04/01 05:55:02;;;;;;;10.10;8.97;;;;;0.50;99988.00;;;;10166497;29;20209;-80
2022/04/01 06:00:12;;;;;;;12.83;9.50;;;;;0.50;99992.00;;;;10171658;29;20592;-81
2022/04/01 06:05:17;;;;;;;11.77;10.57;;;;;0.50;100005.00;;;;10173193;29;20226;-82
2022/04/01 06:10:35;;;;;;;12.63;10.23;;;;;0.50;100009.00;;;;10165140;29;20646;-80
2022/04/01 06:16:20;;;;;;;14.17;12.00;;;;;0.60;100028.00;;;;10165695;29;20194;-80
2022/04/01 06:21:26;;;;;;;11.00;9.87;;;;;0.60;100027.00;;;;10188037;29;20209;-80
2022/04/01 06:26:32;;;;;;;13.07;10.30;;;;;0.60;100036.00;;;;10206558;29;20678;-81
2022/04/01 06:31:35;;;;;;;13.00;10.17;;;;;0.60;100047.00;;;;10158366;29;20213;-80
2022/04/01 06:36:57;;;;;;;12.87;10.77;;;;;0.60;100052.00;;;;10183705;29;20274;-80
2022/04/01 06:41:59;;;;;;;16.63;11.97;;;;;0.60;100063.00;;;;10183590;29;20198;-80
2022/04/01 06:47:27;;;;;;;16.00;12.63;;;;;0.60;100069.00;;;;10166806;29;20768;-80
2022/04/01 06:52:29;;;;;;;12.07;10.03;;;;;0.60;100084.00;;;;10159809;29;20303;-80
2022/04/01 06:57:50;;;;;;;16.77;10.87;;;;;0.60;100095.00;;;;10171091;29;20186;-81
2022/04/01 07:03:10;;;;;;;13.90;12.47;;;;;0.60;100099.00;;;;10133595;29;20203;-80
2022/04/01 07:08:15;;;;;;;14.07;11.93;;;;;0.60;100098.00;;;;10156210;29;20214;-80
2022/04/01 07:13:17;;;;;;;14.67;11.33;;;;;0.60;100116.00;;;;10175482;29;20218;-80
2022/04/01 07:18:21;;;;;;;14.37;11.53;;;;;0.70;100126.00;;;;10189850;29;20202;-79
2022/04/01 07:23:23;;;;;;;12.60;10.80;;;;;0.70;100129.00;;;;10174384;29;20198;-80
2022/04/01 07:28:25;;;;;;;12.80;11.50;;;;;0.80;100135.00;;;;10189212;29;20235;-80
2022/04/01 07:33:27;;;;;;;12.27;9.97;;;;;0.80;100150.00;;;;10205167;29;20281;-82
2022/04/01 07:38:29;;;;;;;16.63;12.33;;;;;0.80;100146.00;;;;10173453;29;20238;-81
2022/04/01 07:43:31;;;;;;;12.60;9.80;;;;;0.90;100160.00;;;;10171901;29;20210;-79
2022/04/01 07:48:33;;;;;;;14.07;10.37;;;;;0.90;100177.00;;;;10174127;29;20214;-82
2022/04/01 07:53:35;;;;;;;13.90;10.47;;;;;0.90;100180.00;;;;10215961;29;20237;-84
2022/04/01 07:58:37;;;;;;;12.93;10.10;;;;;1.00;100185.00;;;;10245288;29;20190;-84
2022/04/01 08:03:44;;;;;;;11.17;9.77;;;;;1.00;100190.00;;;;10213728;29;20198;-85
2022/04/01 08:08:46;;;;;;;12.40;9.77;;;;;1.00;100194.00;;;;10212877;29;20214;-85
2022/04/01 08:13:48;;;;;;;10.97;8.47;;;;;1.00;100202.00;;;;10212278;28;20624;-86
2022/04/01 08:18:50;;;;;;;11.70;8.73;;;;;1.00;100212.00;;;;10213284;29;20194;-86
2022/04/01 08:23:53;;;;;;;11.57;8.90;;;;;1.00;100207.00;;;;10164383;29;20211;-86
2022/04/01 08:28:55;;;;;;;9.50;7.90;;;;;1.00;100226.00;;;;10142818;29;20653;-85
2022/04/01 08:33:57;;;;;;;8.87;7.33;;;;;1.00;100224.00;;;;10189575;29;20190;-85
2022/04/01 08:38:59;;;;;;;8.80;6.93;;;;;1.10;100240.00;;;;10188165;29;20247;-85
2022/04/01 08:44:03;;;;;;;8.97;7.20;;;;;1.20;100252.00;;;;10188189;29;20295;-84
2022/04/01 08:49:06;;;;;;;7.23;6.30;;;;;1.40;100251.00;;;;10170367;29;20217;-85
2022/04/01 08:54:08;;;;;;;8.63;7.73;;;;;1.60;100267.00;;;;10186134;29;20202;-84
2022/04/01 08:59:11;;;;;;;8.80;7.00;;;;;1.70;100277.00;;;;10185321;29;20217;-85
2022/04/01 09:04:22;;;;;;;8.53;6.63;;;;;1.70;100275.00;;;;10184297;29;20194;-83
2022/04/01 09:09:29;;;;;;;6.63;5.97;;;;;1.90;100278.00;;;;10168067;29;20218;-83
2022/04/01 09:14:32;;;;;;;8.60;6.43;;;;;1.90;100276.00;;;;10142294;29;20206;-84
2022/04/01 09:19:35;;;;;;;5.97;4.87;;;;;2.10;100288.00;;;;10145283;29;20263;-83
2022/04/01 09:24:39;;;;;;;7.90;5.97;;;;;2.10;100283.00;;;;10128892;29;20302;-82
2022/04/01 09:29:41;;;;;;;6.97;4.30;;;;;2.20;100288.00;;;;10142232;29;20206;-81
2022/04/01 09:34:43;;;;;;;7.87;5.03;;;;;2.30;100288.00;;;;10143172;29;20206;-81
2022/04/01 09:39:45;;;;;;;6.90;6.27;;;;;2.40;100284.00;;;;10134796;29;20278;-81
2022/04/01 09:44:46;;;;;;;5.77;4.63;;;;;2.30;100308.00;;;;10150992;29;20250;-80
2022/04/01 09:49:52;;;;;;;5.37;4.80;;;;;2.10;100302.00;;;;10151212;29;20210;-80
2022/04/01 09:54:55;;;;;;;6.43;4.73;;;;;2.10;100311.00;;;;10169000;29;20666;-81
2022/04/01 09:59:57;;;;;;;5.47;4.77;;;;;2.10;100312.00;;;;10168051;29;20200;-82
2022/04/01 10:05:00;;;;;;;8.57;5.20;;;;;2.40;100308.00;;;;10151424;29;20749;-82
2022/04/01 10:10:04;;;;;;;7.00;4.90;;;;;2.40;100321.00;;;;10145607;29;20275;-82
2022/04/01 10:15:08;;;;;;;6.17;5.10;;;;;2.40;100336.00;;;;10145275;29;20199;-83
2022/04/01 10:20:31;;;;;;;6.03;4.70;;;;;2.30;100347.00;;;;10132797;29;20236;-81
2022/04/01 10:25:56;;;;;;;4.73;4.27;;;;;2.30;100340.00;;;;10129328;29;20203;-82
2022/04/01 10:31:00;;;;;;;4.57;4.00;;;;;2.30;100353.00;;;;10154022;29;20554;-81
2022/04/01 10:36:26;;;;;;;6.50;4.87;;;;;2.60;100357.00;;;;10152547;29;20272;-80
2022/04/01 10:41:28;;;;;;;6.47;3.90;;;;;2.70;100354.00;;;;10112327;29;20209;-81
2022/04/01 10:46:30;;;;;;;4.27;3.63;;;;;2.70;100369.00;;;;10152448;29;20309;-80
2022/04/01 10:51:38;;;;;;;4.20;3.70;;;;;2.50;100381.00;;;;10174195;29;20210;-80
2022/04/01 10:57:00;;;;;;;6.90;4.23;;;;;2.40;100381.00;;;;10173830;29;20219;-80
2022/04/01 11:02:04;;;;;;;4.83;3.50;;;;;2.30;100387.00;;;;10183134;29;20285;-80
2022/04/01 11:07:09;;;;;;;4.40;3.87;;;;;2.30;100391.00;;;;10151271;29;20215;-81
2022/04/01 11:12:14;;;;;;;4.27;3.70;;;;;2.30;100401.00;;;;10167837;29;20843;-81
2022/04/01 11:17:17;;;;;;;4.00;3.60;;;;;2.30;100401.00;;;;10152941;29;20258;-80
2022/04/01 11:22:42;;;;;;;6.97;4.10;;;;;2.30;100395.00;;;;10173224;29;20203;-80
2022/04/01 11:28:01;;;;;;;5.07;3.10;;;;;2.30;100401.00;;;;10144490;29;20218;-81
2022/04/01 11:33:08;;;;;;;3.30;2.90;;;;;2.40;100409.00;;;;10153225;29;20202;-80
2022/04/01 11:38:18;;;;;;;4.63;3.40;;;;;2.40;100406.00;;;;10133094;29;20249;-81
2022/04/01 11:43:21;;;;;;;5.23;3.33;;;;;2.70;100406.00;;;;10181209;29;20213;-80
2022/04/01 11:48:32;;;;;;;3.77;3.17;;;;;2.80;100410.00;;;;10177752;29;20215;-80
2022/04/01 11:53:37;;;;;;;4.73;3.27;;;;;3.20;100409.00;;;;10191496;29;20202;-80
2022/04/01 11:59:00;;;;;;;4.07;3.00;;;;;3.10;100417.00;;;;10180710;29;20700;-80
2022/04/01 12:04:11;;;;;;;4.10;2.80;;;;;3.30;100409.00;;;;10148070;29;20209;-80
2022/04/01 12:09:13;;;;;;;5.23;3.10;;;;;3.20;100412.00;;;;10163466;29;20218;-82
2022/04/01 12:14:24;;;;;;;4.40;2.97;;;;;3.50;100414.00;;;;10164671;29;20220;-81
2022/04/01 12:19:26;;;;;;;4.23;3.20;;;;;3.50;100420.00;;;;10158046;29;20209;-80
2022/04/01 12:24:34;;;;;;;5.13;2.63;;;;;3.40;100413.00;;;;10204611;29;20253;-80
2022/04/01 12:29:36;;;;;;;4.47;2.90;;;;;3.30;100422.00;;;;10186482;29;20262;-80
2022/04/01 12:34:45;;;;;;;6.43;3.03;;;;;3.10;100420.00;;;;10154676;29;20254;-79
2022/04/01 12:39:56;;;;;;;5.57;3.67;;;;;3.00;100420.00;;;;10152595;29;20226;-80
2022/04/01 12:44:58;;;;;;;7.23;3.40;;;;;3.10;100433.00;;;;10136884;29;20213;-79
2022/04/01 12:50:00;;;;;;;5.17;3.50;;;;;3.30;100437.00;;;;10158430;29;20222;-81
2022/04/01 12:55:02;;;;;;;5.03;3.03;;;;;3.70;100430.00;;;;10142689;29;20709;-80
2022/04/01 13:00:13;;;;;;;4.27;3.00;;;;;3.60;100433.00;;;;10132921;29;20675;-80
2022/04/01 13:05:16;;;;;;;5.13;3.37;;;;;3.60;100434.00;;;;10149989;29;20291;-81
2022/04/01 13:10:20;;;;;;;3.60;3.30;;;;;3.50;100444.00;;;;10164198;29;20217;-80
2022/04/01 13:15:24;;;;;;;6.33;3.40;;;;;3.40;100438.00;;;;10131852;29;20199;-80
2022/04/01 13:20:28;;;;;;;3.77;3.10;;;;;3.40;100443.00;;;;10149289;29;20203;-80
2022/04/01 13:25:31;;;;;;;4.87;3.60;;;;;3.30;100438.00;;;;10161775;29;20255;-79
2022/04/01 13:30:34;;;;;;;5.47;3.37;;;;;3.20;100459.00;;;;10134409;29;20215;-79
2022/04/01 13:35:38;;;;;;;6.10;3.77;;;;;3.20;100453.00;;;;10168914;29;20238;-80
2022/04/01 13:40:40;;;;;;;6.23;4.20;;;;;3.20;100463.00;;;;10150933;29;20219;-80
2022/04/01 13:45:42;;;;;;;6.40;4.10;;;;;3.20;100463.00;;;;10176836;29;20198;-82
2022/04/01 13:50:45;;;;;;;6.10;4.77;;;;;3.20;100465.00;;;;10192484;29;20254;-79
2022/04/01 13:55:47;;;;;;;5.33;4.00;;;;;3.20;100468.00;;;;10192704;29;20200;-80
2022/04/01 14:00:49;;;;;;;5.83;4.17;;;;;3.20;100468.00;;;;10167106;29;20297;-79
2022/04/01 14:05:52;;;;;;;8.23;4.57;;;;;3.20;100467.00;;;;10154769;29;20202;-79
2022/04/01 14:10:54;;;;;;;4.53;3.77;;;;;3.00;100483.00;;;;10146019;29;20214;-80
2022/04/01 14:15:56;;;;;;;7.33;4.43;;;;;2.80;100490.00;;;;10191247;29;20210;-80
2022/04/01 14:20:59;;;;;;;6.93;4.50;;;;;2.80;100479.00;;;;10226293;29;20212;-80
2022/04/01 14:26:08;;;;;;;5.80;4.50;;;;;2.90;100484.00;;;;10230291;29;20201;-80
2022/04/01 14:31:10;;;;;;;5.60;4.53;;;;;2.90;100490.00;;;;10207492;29;20245;-80
2022/04/01 14:36:14;;;;;;;6.50;5.17;;;;;2.90;100495.00;;;;10178869;29;20708;-80
2022/04/01 14:41:17;;;;;;;6.37;4.53;;;;;3.00;100513.00;;;;10173594;29;20285;-79
2022/04/01 14:46:19;;;;;;;5.90;4.83;;;;;3.20;100502.00;;;;10174605;29;20209;-79
2022/04/01 14:51:21;;;;;;;9.13;5.30;;;;;3.40;100507.00;;;;10171837;29;20732;-79
2022/04/01 14:56:23;;;;;;;5.47;4.87;;;;;3.30;100513.00;;;;10187280;29;20206;-79
2022/04/01 15:01:25;;;;;;;7.13;5.17;;;;;3.00;100526.00;;;;10185783;29;20194;-78
2022/04/01 15:06:27;;;;;;;7.53;5.33;;;;;2.80;100529.00;;;;10187289;29;20190;-79
2022/04/01 15:11:29;;;;;;;8.07;5.70;;;;;2.70;100537.00;;;;10188629;29;20239;-80
2022/04/01 15:16:31;;;;;;;7.57;5.97;;;;;2.70;100541.00;;;;10162066;29;20216;-79
2022/04/01 15:21:34;;;;;;;7.97;5.43;;;;;2.90;100543.00;;;;10152424;29;20341;-80
2022/04/01 15:26:37;;;;;;;8.60;6.60;;;;;3.40;100544.00;;;;10193969;29;20198;-80
2022/04/01 15:31:39;;;;;;;7.70;6.27;;;;;3.90;100548.00;;;;10179252;29;20218;-80
2022/04/01 15:36:48;;;;;;;7.10;6.27;;;;;4.60;100555.00;;;;10175631;29;20230;-80
2022/04/01 15:41:52;;;;;;;6.47;5.40;;;;;5.00;100574.00;;;;10194125;29;20183;-81
2022/04/01 15:46:54;;;;;;;6.87;5.97;;;;;4.90;100571.00;;;;10194206;29;20254;-80
2022/04/01 15:51:57;;;;;;;7.10;6.40;;;;;4.40;100564.00;;;;10175227;29;20231;-80
2022/04/01 15:57:00;;;;;;;7.53;6.70;;;;;3.90;100567.00;;;;10182204;29;20206;-80
2022/04/01 16:02:05;;;;;;;9.90;7.07;;;;;3.60;100580.00;;;;10181953;29;20194;-80
2022/04/01 16:07:09;;;;;;;9.00;6.07;;;;;3.30;100582.00;;;;10169797;29;20199;-80
2022/04/01 16:12:16;;;;;;;8.53;6.30;;;;;3.30;100592.00;;;;10147060;29;20215;-80
2022/04/01 16:17:18;;;;;;;8.53;5.57;;;;;3.40;100600.00;;;;10141993;29;20255;-79
2022/04/01 16:22:21;;;;;;;9.23;6.27;;;;;3.40;100609.00;;;;10172329;29;20210;-80
2022/04/01 16:27:24;;;;;;;7.67;5.97;;;;;3.30;100623.00;;;;10239090;29;20214;-79
2022/04/01 16:32:26;;;;;;;8.67;6.00;;;;;3.20;100618.00;;;;10174191;29;20202;-79
2022/04/01 16:37:28;;;;;;;7.40;6.30;;;;;3.30;100615.00;;;;10143635;29;20227;-80
2022/04/01 16:42:30;;;;;;;7.63;6.23;;;;;3.50;100609.00;;;;10157270;29;20262;-80
2022/04/01 16:47:32;;;;;;;7.30;5.40;;;;;3.80;100613.00;;;;10128476;29;20222;-80
2022/04/01 16:52:34;;;;;;;6.83;5.60;;;;;4.00;100624.00;;;;10175648;29;20202;-80
2022/04/01 16:57:36;;;;;;;5.60;4.20;;;;;3.70;100628.00;;;;10195009;29;20223;-79
2022/04/01 17:02:39;;;;;;;6.63;3.93;;;;;3.50;100627.00;;;;10180807;29;20234;-80
2022/04/01 17:13:01;;;;;;;4.97;3.50;;;;;3.70;100630.00;;;;10197109;29;20198;-79
2022/04/01 17:18:03;;;;;;;5.57;3.37;;;;;3.70;100638.00;;;;10181894;29;20197;-80
2022/04/01 17:23:07;;;;;;;7.77;3.63;;;;;3.70;100651.00;;;;10168736;29;20230;-81
2022/04/01 17:28:10;;;;;;;3.63;3.20;;;;;3.70;100656.00;;;;10197057;29;20210;-80
2022/04/01 17:33:13;;;;;;;4.10;3.13;;;;;3.70;100649.00;;;;10197292;29;20198;-80
2022/04/01 17:38:17;;;;;;;4.20;3.63;;;;;3.70;100653.00;;;;10177888;29;20265;-80
2022/04/01 17:43:20;;;;;;;4.10;3.27;;;;;3.60;100649.00;;;;10181541;29;20206;-80
2022/04/01 17:48:22;;;;;;;3.27;2.90;;;;;3.60;100668.00;;;;10176827;29;20277;-80
2022/04/01 17:53:24;;;;;;;3.80;2.90;;;;;3.40;100684.00;;;;10154104;29;20641;-79
2022/04/01 17:58:30;;;;;;;2.20;1.97;;;;;3.30;100683.00;;;;10155160;29;20226;-80
2022/04/01 18:03:38;;;;;;;3.97;2.60;;;;;3.20;100686.00;;;;10178961;29;20210;-80
2022/04/01 18:08:41;;;;;;;3.90;3.00;;;;;3.10;100697.00;;;;10177948;29;20250;-80
2022/04/01 18:13:43;;;;;;;3.63;2.83;;;;;3.00;100699.00;;;;10179120;29;20274;-80
2022/04/01 18:18:46;;;;;;;3.03;2.73;;;;;2.90;100708.00;;;;10162617;29;20827;-80
2022/04/01 18:23:48;;;;;;;4.40;3.17;;;;;2.80;100720.00;;;;10179055;29;20194;-80
2022/04/01 18:29:02;;;;;;;4.70;2.70;;;;;2.80;100720.00;;;;10178994;29;20246;-81
2022/04/01 18:34:10;;;;;;;5.20;2.63;;;;;2.70;100739.00;;;;10178373;29;20226;-80
2022/04/01 18:39:12;;;;;;;5.03;3.70;;;;;2.70;100748.00;;;;10177544;29;20238;-80
2022/04/01 18:44:35;;;;;;;3.37;2.73;;;;;2.70;100753.00;;;;10194885;29;20198;-79
2022/04/01 18:49:37;;;;;;;6.57;2.97;;;;;2.70;100772.00;;;;10175951;29;20210;-79
2022/04/01 18:54:40;;;;;;;4.17;2.53;;;;;2.70;100776.00;;;;10146367;29;20210;-80
2022/04/01 18:59:42;;;;;;;5.10;3.43;;;;;2.70;100779.00;;;;10159252;29;20195;-81
2022/04/01 19:04:51;;;;;;;4.33;3.37;;;;;2.70;100792.00;;;;10162495;29;20211;-80
2022/04/01 19:09:55;;;;;;;6.27;3.67;;;;;2.60;100781.00;;;;10144839;29;20219;-80
2022/04/01 19:15:00;;;;;;;4.90;3.70;;;;;2.60;100791.00;;;;10145272;29;20203;-80
2022/04/01 19:20:05;;;;;;;4.57;3.47;;;;;2.60;100790.00;;;;10130758;29;20262;-80
2022/04/01 19:25:11;;;;;;;5.00;3.73;;;;;2.60;100798.00;;;;10165007;29;20206;-79
2022/04/01 19:30:16;;;;;;;4.87;3.00;;;;;2.60;100792.00;;;;10182843;29;20241;-79
2022/04/01 19:35:19;;;;;;;4.27;3.50;;;;;2.60;100808.00;;;;10200543;29;20206;-80
2022/04/01 19:40:21;;;;;;;5.20;3.93;;;;;2.60;100810.00;;;;10200668;29;20700;-80
2022/04/01 19:45:24;;;;;;;6.70;3.63;;;;;2.50;100808.00;;;;10173706;29;20739;-79
2022/04/01 19:50:26;;;;;;;5.57;3.63;;;;;2.50;100814.00;;;;10189971;29;20583;-80
2022/04/01 19:55:28;;;;;;;6.07;3.50;;;;;2.40;100831.00;;;;10197539;29;20209;-80
2022/04/01 20:00:30;;;;;;;5.97;3.53;;;;;2.40;100836.00;;;;10182475;29;20194;-80
2022/04/01 20:05:33;;;;;;;8.30;3.33;;;;;2.50;100839.00;;;;10180456;29;20206;-81
2022/04/01 20:10:35;;;;;;;4.53;3.60;;;;;2.50;100844.00;;;;10194714;29;20214;-80
2022/04/01 20:15:37;;;;;;;4.27;3.10;;;;;2.40;100845.00;;;;10197945;29;20627;-80
2022/04/01 20:20:39;;;;;;;9.83;3.07;;;;;2.40;100831.00;;;;10182940;29;20230;-80
2022/04/01 20:25:42;;;;;;;9.63;2.73;;;;;2.50;100850.00;;;;10165849;29;20214;-80
2022/04/01 20:30:44;;;;;;;3.57;2.10;;;;;2.50;100854.00;;;;10177325;29;20210;-79
2022/04/01 20:35:46;;;;;;;4.93;2.30;;;;;2.60;100850.00;;;;10178579;29;20324;-80
2022/04/01 20:40:48;;;;;;;4.43;2.30;;;;;2.60;100856.00;;;;10152883;29;20195;-79
2022/04/01 20:45:50;;;;;;;3.70;1.70;;;;;2.60;100858.00;;;;10154297;29;20207;-80
2022/04/01 20:50:52;;;;;;;4.57;2.83;;;;;2.60;100844.00;;;;10142647;29;20217;-79
2022/04/01 20:55:54;;;;;;;4.17;2.50;;;;;2.60;100852.00;;;;10233498;29;20208;-80
2022/04/01 21:00:56;;;;;;;4.67;1.73;;;;;2.60;100864.00;;;;10209959;29;20734;-80
2022/04/01 21:05:58;;;;;;;4.53;2.20;;;;;2.60;100876.00;;;;10160421;29;20264;-80
2022/04/01 21:11:01;;;;;;;2.63;1.80;;;;;2.60;100881.00;;;;10162165;29;20277;-78
2022/04/01 21:16:03;;;;;;;4.83;1.80;;;;;2.60;100874.00;;;;10165395;29;20206;-79
2022/04/01 21:21:25;;;;;;;2.90;1.97;;;;;2.60;100889.00;;;;10154815;29;20234;-79
2022/04/01 21:31:48;;;;;;;3.17;1.80;;;;;2.60;100894.00;;;;10158150;29;20211;-80
2022/04/01 21:36:50;;;;;;;5.23;2.50;;;;;2.50;100893.00;;;;10137022;29;20243;-79
2022/04/01 21:41:52;;;;;;;3.80;1.90;;;;;2.50;100898.00;;;;10151598;29;20191;-80
2022/04/01 21:46:54;;;;;;;3.37;2.03;;;;;2.50;100899.00;;;;10121053;29;20194;-79
2022/04/01 21:51:56;;;;;;;4.97;2.63;;;;;2.40;100906.00;;;;10144558;29;20206;-80
2022/04/01 21:56:59;;;;;;;4.03;2.47;;;;;2.40;100916.00;;;;10172553;29;20206;-80
2022/04/01 22:02:04;;;;;;;6.67;2.43;;;;;2.30;100915.00;;;;10158390;29;20194;-79
2022/04/01 22:07:06;;;;;;;5.60;2.23;;;;;2.30;100916.00;;;;10166550;29;20199;-80
2022/04/01 22:12:09;;;;;;;6.80;2.27;;;;;2.20;100911.00;;;;10172298;29;20262;-79
2022/04/01 22:17:11;;;;;;;4.83;2.40;;;;;2.10;100913.00;;;;10187795;29;20266;-79
2022/04/01 22:22:13;;;;;;;4.17;2.33;;;;;2.00;100916.00;;;;10143619;29;20227;-79
2022/04/01 22:27:15;;;;;;;3.37;1.83;;;;;2.00;100914.00;;;;10169820;29;20570;-79
2022/04/01 22:32:22;;;;;;;3.10;2.30;;;;;1.90;100916.00;;;;10186095;29;20360;-80
2022/04/01 22:37:25;;;;;;;4.77;2.10;;;;;1.90;100904.00;;;;10180072;29;20222;-79
2022/04/01 22:42:28;;;;;;;5.37;2.70;;;;;1.90;100908.00;;;;10180385;29;20221;-79
2022/04/01 22:47:31;;;;;;;3.83;2.27;;;;;1.90;100920.00;;;;10215036;29;20194;-79
2022/04/01 22:52:33;;;;;;;4.80;2.27;;;;;1.90;100922.00;;;;10167884;29;20281;-80
2022/04/01 22:57:35;;;;;;;3.90;2.50;;;;;1.90;100921.00;;;;10196571;29;20206;-80
2022/04/01 23:02:38;;;;;;;6.27;2.33;;;;;1.90;100920.00;;;;10163589;29;20195;-78
2022/04/01 23:07:41;;;;;;;2.97;2.13;;;;;2.00;100922.00;;;;10195763;29;20221;-78
2022/04/01 23:12:42;;;;;;;3.67;2.30;;;;;2.00;100923.00;;;;10180240;29;20708;-78
2022/04/01 23:17:46;;;;;;;5.87;2.50;;;;;2.10;100921.00;;;;10179084;29;20226;-79
2022/04/01 23:22:49;;;;;;;3.83;2.33;;;;;2.10;100936.00;;;;10195064;29;20230;-79
2022/04/01 23:27:51;;;;;;;3.53;2.07;;;;;2.10;100927.00;;;;10192735;29;20254;-79
2022/04/01 23:32:53;;;;;;;4.10;2.53;;;;;2.10;100922.00;;;;10193550;29;20214;-78
2022/04/01 23:37:56;;;;;;;4.40;2.10;;;;;2.20;100928.00;;;;10163094;29;20704;-79
2022/04/01 23:42:57;;;;;;;5.57;2.77;;;;;2.20;100933.00;;;;10193562;29;20205;-80
2022/04/01 23:47:59;;;;;;;4.77;2.53;;;;;2.20;100936.00;;;;10178139;29;20209;-79
2022/04/01 23:53:02;;;;;;;7.13;2.50;;;;;2.20;100933.00;;;;10192943;29;20229;-79
2022/04/01 23:58:04;;;;;;;5.33;2.63;;;;;2.20;100926.00;;;;10191771;29;20273;-80
